Time;durP1;ratioP1;P1;durP2;ratioP2;P2;SDS_P1;SDS_P2;PMS_P1;PMS_P2;Temp;Humidity;BMP_temperature;BMP_pressure;BME280_temperature;BME280_humidity;BME280_pressure;Samples;Min_cycle;Max_cycle;Signal;HPM_P1;HPM_P2
2022/12/05 00:01:21;;;;;;;1.53;0.87;;;;;;;;;;5102882;28;20042;-60
2022/12/05 00:03:48;;;;;;;1.60;1.10;;;;;;;;;;5103545;28;20036;-59
2022/12/05 00:06:15;;;;;;;1.13;0.70;;;;;;;;;;5103452;28;20024;-59
2022/12/05 00:08:42;;;;;;;1.00;0.67;;;;;;;;;;5107297;28;20027;-60
2022/12/05 00:11:13;;;;;;;0.83;0.47;;;;;;;;;;5108524;28;20032;-59
2022/12/05 00:13:41;;;;;;;0.87;0.50;;;;;;;;;;5108864;28;20028;-59
2022/12/05 00:16:09;;;;;;;4.40;0.67;;;;;;;;;;5106157;28;20431;-59
2022/12/05 00:18:35;;;;;;;1.30;0.67;;;;;;;;;;5102092;28;20023;-59
2022/12/05 00:21:02;;;;;;;1.10;0.70;;;;;;;;;;5103404;28;20028;-59
2022/12/05 00:23:29;;;;;;;1.03;0.50;;;;;;;;;;5104002;28;20032;-60
2022/12/05 00:25:56;;;;;;;4.57;1.10;;;;;;;;;;5103168;28;20497;-60
2022/12/05 00:28:22;;;;;;;0.70;0.63;;;;;;;;;;5104110;28;20478;-59
2022/12/05 00:30:49;;;;;;;1.67;0.57;;;;;;;;;;5107130;28;20054;-59
2022/12/05 00:33:15;;;;;;;1.33;0.70;;;;;;;;;;5106688;28;20374;-60
2022/12/05 00:35:42;;;;;;;1.67;0.73;;;;;;;;;;5094867;28;20378;-59
2022/12/05 00:38:09;;;;;;;3.00;1.17;;;;;;;;;;5094808;28;20386;-60
2022/12/05 00:40:36;;;;;;;2.90;1.20;;;;;;;;;;5094762;28;20414;-59
2022/12/05 00:43:02;;;;;;;9.27;1.07;;;;;;;;;;5090916;28;20032;-59
2022/12/05 00:45:29;;;;;;;3.00;1.70;;;;;;;;;;5090008;28;20024;-59
2022/12/05 00:47:56;;;;;;;7.57;2.03;;;;;;;;;;5089741;28;20546;-59
2022/12/05 00:50:23;;;;;;;5.10;1.63;;;;;;;;;;5088828;28;20376;-59
2022/12/05 00:52:50;;;;;;;2.27;1.03;;;;;;;;;;5092739;28;20016;-59
2022/12/05 00:55:16;;;;;;;1.83;0.83;;;;;;;;;;5093885;28;20039;-59
2022/12/05 00:57:43;;;;;;;2.03;1.17;;;;;;;;;;5094741;28;20393;-59
2022/12/05 01:00:10;;;;;;;0.97;0.60;;;;;;;;;;5094351;28;20378;-60
2022/12/05 01:02:36;;;;;;;0.77;0.50;;;;;;;;;;5094725;28;20030;-60
2022/12/05 01:05:03;;;;;;;0.87;0.57;;;;;;;;;;5091018;28;20024;-58
2022/12/05 01:07:30;;;;;;;2.23;1.30;;;;;;;;;;5089706;28;20539;-59
2022/12/05 01:09:57;;;;;;;1.50;0.50;;;;;;;;;;5089229;28;20452;-59
2022/12/05 01:12:23;;;;;;;0.30;0.30;;;;;;;;;;5089744;28;20107;-59
2022/12/05 01:14:50;;;;;;;0.60;0.43;;;;;;;;;;5091750;28;20048;-59
2022/12/05 01:17:17;;;;;;;1.27;0.60;;;;;;;;;;5094190;28;20841;-59
2022/12/05 01:19:43;;;;;;;5.87;0.73;;;;;;;;;;5094200;28;20089;-59
2022/12/05 01:22:10;;;;;;;4.40;0.70;;;;;;;;;;5094985;28;20083;-59
2022/12/05 01:24:37;;;;;;;0.43;0.37;;;;;;;;;;5094101;28;20478;-59
2022/12/05 01:27:04;;;;;;;0.70;0.60;;;;;;;;;;5090985;28;20036;-59
2022/12/05 01:29:30;;;;;;;19.87;0.97;;;;;;;;;;5088469;28;20028;-59
2022/12/05 01:31:57;;;;;;;2.73;0.80;;;;;;;;;;5089123;28;20466;-60
2022/12/05 01:34:24;;;;;;;2.40;1.00;;;;;;;;;;5088782;28;20470;-59
2022/12/05 01:36:51;;;;;;;2.43;1.00;;;;;;;;;;5091675;28;20428;-59
2022/12/05 01:39:18;;;;;;;0.83;0.63;;;;;;;;;;5080996;28;20038;-59
2022/12/05 01:41:46;;;;;;;15.63;1.83;;;;;;;;;;5094316;28;20051;-59
2022/12/05 01:44:13;;;;;;;0.40;0.40;;;;;;;;;;5075660;28;20103;-60
2022/12/05 01:46:43;;;;;;;1.40;0.80;;;;;;;;;;5093399;28;20574;-59
2022/12/05 01:49:15;;;;;;;0.53;0.40;;;;;;;;;;5091020;28;20078;-59
2022/12/05 01:51:53;;;;;;;2.23;0.90;;;;;;;;;;5088536;28;20423;-60
2022/12/05 01:54:21;;;;;;;0.53;0.43;;;;;;;;;;5088499;28;20024;-59
2022/12/05 01:56:52;;;;;;;1.20;0.80;;;;;;;;;;5088594;28;20387;-59
2022/12/05 01:59:21;;;;;;;1.00;0.73;;;;;;;;;;5090594;28;20023;-59
2022/12/05 02:01:47;;;;;;;1.53;0.60;;;;;;;;;;5093854;28;20024;-60
2022/12/05 02:04:14;;;;;;;1.10;0.50;;;;;;;;;;5087071;28;20119;-59
2022/12/05 02:06:41;;;;;;;0.50;0.30;;;;;;;;;;5091098;28;20069;-58
2022/12/05 02:09:07;;;;;;;0.57;0.40;;;;;;;;;;5092962;28;20031;-59
2022/12/05 02:11:35;;;;;;;2.97;0.70;;;;;;;;;;5088705;28;20025;-59
2022/12/05 02:14:27;;;;;;;0.97;0.60;;;;;;;;;;5074612;28;20386;-58
2022/12/05 02:17:03;;;;;;;0.80;0.40;;;;;;;;;;5069826;28;20059;-58
2022/12/05 02:19:42;;;;;;;0.30;0.30;;;;;;;;;;5086342;28;20459;-58
2022/12/05 02:22:21;;;;;;;1.17;0.40;;;;;;;;;;5083414;28;20048;-58
2022/12/05 02:24:48;;;;;;;0.37;0.37;;;;;;;;;;5082069;28;20034;-58
2022/12/05 02:27:20;;;;;;;0.90;0.67;;;;;;;;;;5085915;28;20106;-58
2022/12/05 02:29:50;;;;;;;1.33;0.30;;;;;;;;;;5087685;28;20016;-58
2022/12/05 02:32:28;;;;;;;0.40;0.30;;;;;;;;;;5092665;28;20032;-58
2022/12/05 02:34:54;;;;;;;0.27;0.20;;;;;;;;;;5086886;28;20036;-59
2022/12/05 02:37:27;;;;;;;0.90;0.40;;;;;;;;;;5087273;28;20024;-58
2022/12/05 02:40:17;;;;;;;0.43;0.23;;;;;;;;;;5077458;28;20020;-60
2022/12/05 02:42:49;;;;;;;1.67;0.93;;;;;;;;;;5073804;28;20044;-59
2022/12/05 02:45:16;;;;;;;0.20;0.20;;;;;;;;;;5080664;28;20039;-58
2022/12/05 02:47:46;;;;;;;0.50;0.30;;;;;;;;;;5079380;28;20028;-58
2022/12/05 02:50:15;;;;;;;5.03;0.27;;;;;;;;;;5082409;28;20036;-58
2022/12/05 02:52:42;;;;;;;0.23;0.20;;;;;;;;;;5086690;28;20428;-58
2022/12/05 02:55:10;;;;;;;0.30;0.30;;;;;;;;;;5087149;28;20486;-59
2022/12/05 02:57:37;;;;;;;11.30;0.40;;;;;;;;;;5077733;28;20567;-58
2022/12/05 03:00:05;;;;;;;1.70;0.87;;;;;;;;;;5070654;28;20059;-58
2022/12/05 03:02:33;;;;;;;23.30;0.90;;;;;;;;;;5080779;28;20146;-58
2022/12/05 03:05:38;;;;;;;0.70;0.47;;;;;;;;;;5084453;28;20039;-58
2022/12/05 03:08:06;;;;;;;0.10;0.10;;;;;;;;;;5025566;28;20057;-58
2022/12/05 03:10:33;;;;;;;0.50;0.30;;;;;;;;;;5013362;28;20480;-58
2022/12/05 03:13:03;;;;;;;22.83;0.93;;;;;;;;;;5043408;28;20099;-58
2022/12/05 03:15:35;;;;;;;0.43;0.30;;;;;;;;;;5087733;28;20103;-58
2022/12/05 03:18:13;;;;;;;0.57;0.43;;;;;;;;;;5085037;28;20119;-58
2022/12/05 03:20:50;;;;;;;0.73;0.63;;;;;;;;;;5086314;28;20024;-58
2022/12/05 03:23:49;;;;;;;0.17;0.17;;;;;;;;;;5085906;28;20425;-59
2022/12/05 03:26:24;;;;;;;1.90;0.73;;;;;;;;;;5056150;28;20433;-59
2022/12/05 03:28:57;;;;;;;1.43;0.50;;;;;;;;;;5090148;28;20071;-58
2022/12/05 03:31:27;;;;;;;2.17;0.77;;;;;;;;;;5091671;28;20382;-58
2022/12/05 03:33:57;;;;;;;1.23;0.50;;;;;;;;;;5091388;28;20017;-58
2022/12/05 03:36:28;;;;;;;0.57;0.50;;;;;;;;;;5091547;28;20039;-58
2022/12/05 03:39:07;;;;;;;2.33;0.70;;;;;;;;;;5090282;28;20103;-59
2022/12/05 03:41:40;;;;;;;2.43;1.10;;;;;;;;;;5086174;28;20065;-59
2022/12/05 03:44:10;;;;;;;2.83;0.73;;;;;;;;;;5085751;28;20036;-59
2022/12/05 03:46:43;;;;;;;1.10;0.80;;;;;;;;;;5084755;28;20028;-58
2022/12/05 03:49:17;;;;;;;3.37;0.53;;;;;;;;;;5082588;28;20118;-58
2022/12/05 03:51:49;;;;;;;3.10;1.10;;;;;;;;;;5090452;28;20020;-59
2022/12/05 03:54:27;;;;;;;0.60;0.50;;;;;;;;;;5089275;28;20035;-58
2022/12/05 03:56:59;;;;;;;1.53;1.10;;;;;;;;;;5090309;28;20371;-58
2022/12/05 03:59:36;;;;;;;1.07;0.67;;;;;;;;;;5091044;28;20047;-58
2022/12/05 04:02:06;;;;;;;2.77;0.63;;;;;;;;;;5088890;28;20036;-58
2022/12/05 04:04:39;;;;;;;0.40;0.40;;;;;;;;;;5085533;28;20028;-59
2022/12/05 04:07:07;;;;;;;0.73;0.40;;;;;;;;;;5085680;28;20146;-58
2022/12/05 04:09:43;;;;;;;1.27;0.60;;;;;;;;;;5087411;28;20043;-59
2022/12/05 04:12:14;;;;;;;0.83;0.60;;;;;;;;;;5089488;28;20024;-58
2022/12/05 04:14:42;;;;;;;0.53;0.40;;;;;;;;;;5095623;28;20108;-59
2022/12/05 04:17:21;;;;;;;2.53;0.77;;;;;;;;;;5093522;28;20077;-58
2022/12/05 04:22:38;;;;;;;0.80;0.57;;;;;;;;;;5094195;28;20047;-58
2022/12/05 04:27:54;;;;;;;1.10;0.63;;;;;;;;;;5090282;28;20097;-59
2022/12/05 04:30:22;;;;;;;1.73;0.70;;;;;;;;;;5089797;28;20024;-59
2022/12/05 04:32:58;;;;;;;0.93;0.63;;;;;;;;;;5089869;28;20099;-59
2022/12/05 04:35:33;;;;;;;0.40;0.30;;;;;;;;;;5093279;28;20166;-59
2022/12/05 04:38:10;;;;;;;0.10;0.10;;;;;;;;;;5095568;28;20040;-58
2022/12/05 04:40:44;;;;;;;0.73;0.20;;;;;;;;;;5095515;28;20027;-58
2022/12/05 04:43:12;;;;;;;0.30;0.30;;;;;;;;;;5095641;28;20036;-58
2022/12/05 04:45:40;;;;;;;0.47;0.47;;;;;;;;;;5095195;28;20493;-58
2022/12/05 04:48:10;;;;;;;3.73;0.60;;;;;;;;;;5090348;28;20085;-59
2022/12/05 04:50:38;;;;;;;2.27;0.77;;;;;;;;;;5093665;28;20024;-58
2022/12/05 04:53:06;;;;;;;0.67;0.60;;;;;;;;;;5089946;28;20039;-58
2022/12/05 04:55:34;;;;;;;0.73;0.70;;;;;;;;;;5089469;28;20020;-59
2022/12/05 04:58:12;;;;;;;2.57;1.10;;;;;;;;;;5094218;28;20068;-59
2022/12/05 05:00:47;;;;;;;2.20;0.73;;;;;;;;;;5094878;28;20066;-56
2022/12/05 05:03:20;;;;;;;1.55;1.00;;;;;;;;;;5094630;28;20032;-59
2022/12/05 05:05:51;;;;;;;1.67;1.00;;;;;;;;;;5094365;28;20177;-59
2022/12/05 05:08:19;;;;;;;0.60;0.50;;;;;;;;;;5095207;28;20021;-58
2022/12/05 05:10:52;;;;;;;0.47;0.40;;;;;;;;;;5089323;28;20028;-59
2022/12/05 05:13:19;;;;;;;0.53;0.47;;;;;;;;;;5089749;28;20073;-58
2022/12/05 05:15:45;;;;;;;1.50;0.63;;;;;;;;;;5089236;28;20024;-59
2022/12/05 05:18:12;;;;;;;0.73;0.50;;;;;;;;;;5089274;28;20078;-58
2022/12/05 05:20:39;;;;;;;1.40;0.80;;;;;;;;;;5100292;28;20047;-58
2022/12/05 05:23:06;;;;;;;2.63;0.73;;;;;;;;;;5094898;28;20077;-58
2022/12/05 05:25:33;;;;;;;0.90;0.60;;;;;;;;;;5094191;28;20036;-58
2022/12/05 05:28:00;;;;;;;0.67;0.50;;;;;;;;;;5094745;28;20032;-58
2022/12/05 05:30:26;;;;;;;0.40;0.40;;;;;;;;;;5093563;28;20382;-58
2022/12/05 05:32:53;;;;;;;0.80;0.57;;;;;;;;;;5069201;28;20047;-58
2022/12/05 05:35:20;;;;;;;2.03;1.17;;;;;;;;;;5068836;28;20386;-58
2022/12/05 05:37:47;;;;;;;1.53;0.80;;;;;;;;;;5068804;28;20413;-59
2022/12/05 05:40:14;;;;;;;0.57;0.50;;;;;;;;;;5068747;28;20078;-58
2022/12/05 05:42:47;;;;;;;0.80;0.43;;;;;;;;;;5075175;28;20028;-58
2022/12/05 05:45:15;;;;;;;5.47;0.70;;;;;;;;;;5094418;28;20413;-58
2022/12/05 05:47:42;;;;;;;16.93;1.57;;;;;;;;;;5094549;28;20031;-58
2022/12/05 05:50:09;;;;;;;0.93;0.63;;;;;;;;;;5094332;28;20531;-58
2022/12/05 05:52:37;;;;;;;0.87;0.53;;;;;;;;;;5094384;28;20735;-58
2022/12/05 05:55:04;;;;;;;1.50;0.33;;;;;;;;;;5088702;28;20488;-58
2022/12/05 05:57:31;;;;;;;0.77;0.53;;;;;;;;;;5088384;28;20039;-59
2022/12/05 05:59:58;;;;;;;0.83;0.50;;;;;;;;;;5088669;28;20277;-58
2022/12/05 06:02:25;;;;;;;1.00;0.60;;;;;;;;;;5087862;28;20296;-58
2022/12/05 06:04:52;;;;;;;0.20;0.20;;;;;;;;;;5093237;28;20480;-59
2022/12/05 06:07:19;;;;;;;0.97;0.60;;;;;;;;;;5093253;28;20418;-58
2022/12/05 06:09:45;;;;;;;0.90;0.67;;;;;;;;;;5093731;28;20534;-58
2022/12/05 06:12:12;;;;;;;0.03;0.03;;;;;;;;;;5093502;28;20738;-58
2022/12/05 06:14:39;;;;;;;0.20;0.20;;;;;;;;;;5093530;28;20282;-58
2022/12/05 06:17:05;;;;;;;0.37;0.30;;;;;;;;;;5088433;28;20039;-58
2022/12/05 06:19:32;;;;;;;1.67;0.80;;;;;;;;;;5088309;28;20268;-58
2022/12/05 06:21:59;;;;;;;0.53;0.40;;;;;;;;;;5088249;28;20735;-59
2022/12/05 06:24:26;;;;;;;0.53;0.50;;;;;;;;;;5088010;28;20263;-58
2022/12/05 06:26:52;;;;;;;2.70;0.80;;;;;;;;;;5092081;28;20272;-59
2022/12/05 06:29:19;;;;;;;1.27;0.73;;;;;;;;;;5093192;28;20662;-58
2022/12/05 06:31:46;;;;;;;0.23;0.23;;;;;;;;;;5093225;28;20256;-57
2022/12/05 06:34:13;;;;;;;0.20;0.20;;;;;;;;;;5092875;28;20601;-58
2022/12/05 06:36:39;;;;;;;0.37;0.30;;;;;;;;;;5092520;28;20303;-57
2022/12/05 06:39:06;;;;;;;0.93;0.40;;;;;;;;;;5087395;28;20288;-58
2022/12/05 06:41:33;;;;;;;1.17;0.60;;;;;;;;;;5086822;28;20653;-58
2022/12/05 06:43:59;;;;;;;0.30;0.30;;;;;;;;;;5087079;28;20350;-59
2022/12/05 06:46:26;;;;;;;1.47;0.80;;;;;;;;;;5086652;28;20824;-58
2022/12/05 06:48:53;;;;;;;0.27;0.20;;;;;;;;;;5090889;28;20276;-58
2022/12/05 06:51:20;;;;;;;0.30;0.30;;;;;;;;;;5092498;28;20730;-58
2022/12/05 06:53:47;;;;;;;0.20;0.20;;;;;;;;;;5092570;28;20730;-58
2022/12/05 06:56:15;;;;;;;1.07;0.73;;;;;;;;;;5091947;28;20265;-58
2022/12/05 06:58:42;;;;;;;0.70;0.40;;;;;;;;;;5092581;28;20253;-58
2022/12/05 07:04:05;;;;;;;0.57;0.38;;;;;;;;;;5086373;28;20339;-58
2022/12/05 07:06:32;;;;;;;0.13;0.13;;;;;;;;;;5086304;28;20025;-58
2022/12/05 07:08:59;;;;;;;0.30;0.30;;;;;;;;;;5086557;28;20273;-57
2022/12/05 07:11:26;;;;;;;0.43;0.43;;;;;;;;;;5091223;28;20330;-57
2022/12/05 07:13:53;;;;;;;0.43;0.40;;;;;;;;;;5091943;28;20385;-58
2022/12/05 07:16:19;;;;;;;1.87;0.90;;;;;;;;;;5092014;28;20692;-57
2022/12/05 07:18:46;;;;;;;0.47;0.47;;;;;;;;;;5092446;28;20249;-57
2022/12/05 07:21:15;;;;;;;1.03;0.53;;;;;;;;;;5091901;28;20268;-58
2022/12/05 07:23:43;;;;;;;1.10;0.50;;;;;;;;;;5086701;28;20318;-58
2022/12/05 07:26:11;;;;;;;0.60;0.60;;;;;;;;;;5086532;28;20627;-58
2022/12/05 07:28:38;;;;;;;0.23;0.20;;;;;;;;;;5086623;28;20754;-58
2022/12/05 07:31:08;;;;;;;0.20;0.20;;;;;;;;;;5085925;28;20276;-58
2022/12/05 07:33:35;;;;;;;1.23;0.70;;;;;;;;;;5091233;28;20260;-57
2022/12/05 07:36:06;;;;;;;0.73;0.30;;;;;;;;;;5091085;28;20264;-58
2022/12/05 07:38:33;;;;;;;0.47;0.30;;;;;;;;;;5091951;28;20260;-58
2022/12/05 07:40:59;;;;;;;1.33;0.70;;;;;;;;;;5091552;28;20276;-59
2022/12/05 07:43:26;;;;;;;0.67;0.53;;;;;;;;;;5091842;28;20288;-58
2022/12/05 07:45:52;;;;;;;2.57;0.67;;;;;;;;;;5090497;28;20363;-57
2022/12/05 07:48:19;;;;;;;0.30;0.30;;;;;;;;;;5090420;28;20300;-58
2022/12/05 07:50:46;;;;;;;0.10;0.10;;;;;;;;;;5090000;28;20276;-57
2022/12/05 07:53:12;;;;;;;0.37;0.37;;;;;;;;;;5090605;28;20631;-57
2022/12/05 07:55:39;;;;;;;0.47;0.47;;;;;;;;;;5094130;28;20686;-58
2022/12/05 07:58:06;;;;;;;0.30;0.30;;;;;;;;;;5096151;28;20743;-58
2022/12/05 08:00:32;;;;;;;0.67;0.50;;;;;;;;;;5095604;28;20267;-57
2022/12/05 08:03:01;;;;;;;0.40;0.40;;;;;;;;;;5095602;28;20357;-57
2022/12/05 08:05:28;;;;;;;0.67;0.57;;;;;;;;;;5095137;28;20271;-58
2022/12/05 08:07:54;;;;;;;0.03;0.03;;;;;;;;;;5090551;28;20272;-58
2022/12/05 08:10:21;;;;;;;0.30;0.20;;;;;;;;;;5089927;28;20264;-58
2022/12/05 08:12:48;;;;;;;0.63;0.60;;;;;;;;;;5089438;28;20623;-58
2022/12/05 08:15:14;;;;;;;0.40;0.20;;;;;;;;;;5089713;28;20322;-58
2022/12/05 08:17:41;;;;;;;0.30;0.20;;;;;;;;;;5093584;28;20268;-57
2022/12/05 08:20:08;;;;;;;0.60;0.50;;;;;;;;;;5095293;28;20751;-58
2022/12/05 08:22:34;;;;;;;0.17;0.13;;;;;;;;;;5094927;28;20371;-58
2022/12/05 08:25:01;;;;;;;0.53;0.43;;;;;;;;;;5094940;28;20280;-57
2022/12/05 08:27:28;;;;;;;0.40;0.30;;;;;;;;;;5095207;28;20295;-57
2022/12/05 08:29:54;;;;;;;0.43;0.33;;;;;;;;;;5090949;28;20284;-57
2022/12/05 08:32:21;;;;;;;0.77;0.57;;;;;;;;;;5089626;28;20272;-58
2022/12/05 08:34:48;;;;;;;0.63;0.43;;;;;;;;;;5089572;28;21079;-57
2022/12/05 08:37:14;;;;;;;1.03;0.50;;;;;;;;;;5089300;28;20363;-57
2022/12/05 08:39:41;;;;;;;1.03;0.40;;;;;;;;;;5092395;28;20268;-57
2022/12/05 08:42:07;;;;;;;0.10;0.10;;;;;;;;;;5095163;28;20773;-58
2022/12/05 08:44:34;;;;;;;0.10;0.10;;;;;;;;;;5094465;28;20300;-58
2022/12/05 08:47:00;;;;;;;0.47;0.30;;;;;;;;;;5094796;28;20261;-58
2022/12/05 08:49:27;;;;;;;0.97;0.53;;;;;;;;;;5094415;28;20762;-58
2022/12/05 08:51:54;;;;;;;1.07;0.67;;;;;;;;;;5091220;28;20260;-57
2022/12/05 08:54:20;;;;;;;0.33;0.27;;;;;;;;;;5088852;28;20746;-58
2022/12/05 08:56:50;;;;;;;0.50;0.40;;;;;;;;;;5088800;28;20330;-58
2022/12/05 08:59:16;;;;;;;0.27;0.27;;;;;;;;;;5089218;28;20292;-58
2022/12/05 09:01:43;;;;;;;0.20;0.20;;;;;;;;;;5091883;28;20360;-57
2022/12/05 09:04:11;;;;;;;1.13;0.47;;;;;;;;;;5094278;28;20291;-58
2022/12/05 09:06:38;;;;;;;0.10;0.10;;;;;;;;;;5094422;28;20261;-57
2022/12/05 09:09:06;;;;;;;0.40;0.40;;;;;;;;;;5094463;28;20306;-57
2022/12/05 09:11:35;;;;;;;0.30;0.30;;;;;;;;;;5093808;28;20314;-57
2022/12/05 09:14:02;;;;;;;1.40;0.30;;;;;;;;;;5090261;28;20272;-58
2022/12/05 09:16:33;;;;;;;0.20;0.20;;;;;;;;;;5088703;28;20274;-58
2022/12/05 09:18:59;;;;;;;0.10;0.10;;;;;;;;;;5088179;28;20295;-58
2022/12/05 09:21:28;;;;;;;0.20;0.20;;;;;;;;;;5088197;28;20273;-57
2022/12/05 09:23:55;;;;;;;2.07;0.67;;;;;;;;;;5091355;28;20670;-58
2022/12/05 09:26:23;;;;;;;0.10;0.10;;;;;;;;;;5093742;28;21433;-57
2022/12/05 09:28:50;;;;;;;0.53;0.37;;;;;;;;;;5093996;28;20806;-57
2022/12/05 09:31:18;;;;;;;0.10;0.10;;;;;;;;;;5094072;28;20347;-57
2022/12/05 09:33:45;;;;;;;4.90;0.73;;;;;;;;;;5093905;28;20317;-57
2022/12/05 09:36:13;;;;;;;0.13;0.13;;;;;;;;;;5090049;28;20863;-58
2022/12/05 09:38:40;;;;;;;0.10;0.10;;;;;;;;;;5087972;28;20265;-57
2022/12/05 09:41:12;;;;;;;0.73;0.37;;;;;;;;;;5087990;28;20280;-57
2022/12/05 09:43:38;;;;;;;0.30;0.30;;;;;;;;;;5088283;28;20404;-58
2022/12/05 09:46:31;;;;;;;0.10;0.10;;;;;;;;;;5090642;28;20288;-57
2022/12/05 09:48:58;;;;;;;0.90;0.60;;;;;;;;;;5089241;28;20273;-57
2022/12/05 09:51:25;;;;;;;0.10;0.10;;;;;;;;;;5093823;28;20257;-57
2022/12/05 09:53:52;;;;;;;0.20;0.20;;;;;;;;;;5093305;28;20738;-57
2022/12/05 09:56:26;;;;;;;0.70;0.40;;;;;;;;;;5093561;28;20728;-57
2022/12/05 09:58:54;;;;;;;2.53;0.70;;;;;;;;;;5088699;28;20260;-57
2022/12/05 10:01:24;;;;;;;0.40;0.40;;;;;;;;;;5087388;28;20024;-57
2022/12/05 10:04:03;;;;;;;0.97;0.77;;;;;;;;;;5087716;28;20375;-58
2022/12/05 10:06:34;;;;;;;1.13;0.80;;;;;;;;;;5083889;28;20265;-58
2022/12/05 10:09:08;;;;;;;0.23;0.23;;;;;;;;;;5092495;28;20257;-58
2022/12/05 10:11:48;;;;;;;0.20;0.20;;;;;;;;;;5092816;28;20264;-57
2022/12/05 10:14:25;;;;;;;0.47;0.40;;;;;;;;;;5093195;28;20252;-58
2022/12/05 10:16:54;;;;;;;0.40;0.40;;;;;;;;;;5092495;28;20297;-57
2022/12/05 10:19:26;;;;;;;0.47;0.20;;;;;;;;;;5091840;28;20267;-57
2022/12/05 10:21:57;;;;;;;0.10;0.10;;;;;;;;;;5087418;28;20300;-57
2022/12/05 10:24:33;;;;;;;0.43;0.23;;;;;;;;;;5087284;28;20271;-57
2022/12/05 10:27:02;;;;;;;0.50;0.50;;;;;;;;;;5085285;28;20276;-58
2022/12/05 10:29:29;;;;;;;0.63;0.50;;;;;;;;;;5088026;28;20264;-57
2022/12/05 10:32:16;;;;;;;0.43;0.43;;;;;;;;;;5092660;28;20273;-58
2022/12/05 10:34:44;;;;;;;0.37;0.37;;;;;;;;;;5092349;28;20264;-58
2022/12/05 10:37:14;;;;;;;0.17;0.17;;;;;;;;;;5092868;28;20261;-59
2022/12/05 10:39:41;;;;;;;1.73;0.80;;;;;;;;;;5076470;28;20265;-57
2022/12/05 10:42:12;;;;;;;0.57;0.57;;;;;;;;;;5090073;28;20271;-57
2022/12/05 10:44:39;;;;;;;1.23;0.83;;;;;;;;;;5086761;28;20736;-57
2022/12/05 10:47:06;;;;;;;0.20;0.20;;;;;;;;;;5086976;28;20638;-57
2022/12/05 10:49:33;;;;;;;0.57;0.50;;;;;;;;;;5070222;28;20295;-57
2022/12/05 10:52:00;;;;;;;0.53;0.40;;;;;;;;;;5088966;28;20588;-57
2022/12/05 10:54:29;;;;;;;0.30;0.30;;;;;;;;;;5092714;28;20318;-57
2022/12/05 10:56:56;;;;;;;1.20;0.93;;;;;;;;;;5091599;28;20261;-57
2022/12/05 10:59:24;;;;;;;0.93;0.67;;;;;;;;;;5092356;28;20265;-57
2022/12/05 11:01:52;;;;;;;0.63;0.57;;;;;;;;;;5092211;28;20279;-57
2022/12/05 11:04:24;;;;;;;0.50;0.50;;;;;;;;;;5090107;28;20351;-58
2022/12/05 11:06:51;;;;;;;0.73;0.37;;;;;;;;;;5086703;28;20273;-57
2022/12/05 11:09:20;;;;;;;0.37;0.37;;;;;;;;;;5086510;28;20324;-57
2022/12/05 11:12:05;;;;;;;1.53;1.03;;;;;;;;;;5086695;28;20793;-58
2022/12/05 11:14:34;;;;;;;0.95;0.50;;;;;;;;;;5089069;28;20268;-57
2022/12/05 11:17:01;;;;;;;0.57;0.40;;;;;;;;;;5091625;28;20115;-57
2022/12/05 11:19:30;;;;;;;0.10;0.10;;;;;;;;;;5091524;28;20268;-57
2022/12/05 11:21:57;;;;;;;0.30;0.30;;;;;;;;;;5092203;28;20258;-58
2022/12/05 11:24:31;;;;;;;0.60;0.50;;;;;;;;;;5091906;28;20758;-57
2022/12/05 11:26:58;;;;;;;0.20;0.20;;;;;;;;;;5088883;28;20698;-57
2022/12/05 11:29:35;;;;;;;0.30;0.30;;;;;;;;;;5086566;28;20288;-57
2022/12/05 11:32:09;;;;;;;1.00;0.73;;;;;;;;;;5069949;28;20689;-57
2022/12/05 11:34:39;;;;;;;0.10;0.10;;;;;;;;;;5066377;28;20272;-58
2022/12/05 11:37:17;;;;;;;0.40;0.40;;;;;;;;;;5069586;28;20245;-57
2022/12/05 11:39:44;;;;;;;0.33;0.33;;;;;;;;;;5072138;28;20272;-57
2022/12/05 11:42:28;;;;;;;1.10;0.47;;;;;;;;;;5074255;28;20650;-57
2022/12/05 11:45:16;;;;;;;0.55;0.40;;;;;;;;;;5091978;28;20351;-57
2022/12/05 11:48:02;;;;;;;0.47;0.47;;;;;;;;;;5091466;28;20032;-57
2022/12/05 11:50:28;;;;;;;1.23;0.88;;;;;;;;;;5086122;28;20334;-57
2022/12/05 11:53:01;;;;;;;0.20;0.20;;;;;;;;;;5086513;28;20024;-57
2022/12/05 11:55:34;;;;;;;0.30;0.30;;;;;;;;;;5086250;28;20261;-57
2022/12/05 11:58:12;;;;;;;0.50;0.43;;;;;;;;;;5085846;28;20922;-57
2022/12/05 12:01:02;;;;;;;0.30;0.30;;;;;;;;;;5091725;28;20275;-58
2022/12/05 12:03:41;;;;;;;0.30;0.30;;;;;;;;;;5091567;28;20289;-57
2022/12/05 12:06:23;;;;;;;0.63;0.40;;;;;;;;;;5091550;28;20617;-57
2022/12/05 12:08:56;;;;;;;0.70;0.67;;;;;;;;;;5091164;28;20276;-58
2022/12/05 12:11:37;;;;;;;0.77;0.67;;;;;;;;;;5087743;28;20407;-57
2022/12/05 12:14:04;;;;;;;1.27;0.57;;;;;;;;;;5086201;28;20286;-57
2022/12/05 12:16:34;;;;;;;0.30;0.30;;;;;;;;;;5085786;28;20268;-58
2022/12/05 12:19:06;;;;;;;1.90;1.03;;;;;;;;;;5085770;28;20265;-57
2022/12/05 12:21:51;;;;;;;13.20;10.63;;;;;;;;;;5089222;28;20304;-57
2022/12/05 12:24:30;;;;;;;2.85;1.67;;;;;;;;;;5091511;28;20762;-57
2022/12/05 12:27:13;;;;;;;3.53;2.50;;;;;;;;;;5091240;28;20478;-57
2022/12/05 12:29:43;;;;;;;1.40;1.00;;;;;;;;;;5091863;28;20743;-58
2022/12/05 12:32:27;;;;;;;1.70;1.33;;;;;;;;;;5094523;28;20620;-57
2022/12/05 12:35:11;;;;;;;3.77;2.93;;;;;;;;;;5089480;28;20268;-58
2022/12/05 12:37:52;;;;;;;1.75;1.25;;;;;;;;;;5089466;28;20745;-57
2022/12/05 12:40:45;;;;;;;5.03;2.27;;;;;;;;;;5089470;28;20051;-58
2022/12/05 12:43:12;;;;;;;30.60;11.50;;;;;;;;;;5074087;28;20285;-57
2022/12/05 12:45:48;;;;;;;3.33;2.00;;;;;;;;;;5094522;28;20260;-57
2022/12/05 12:48:14;;;;;;;4.10;1.50;;;;;;;;;;5094842;28;20261;-57
2022/12/05 12:50:43;;;;;;;1.93;1.37;;;;;;;;;;5094469;28;20264;-57
2022/12/05 12:53:16;;;;;;;7.13;4.60;;;;;;;;;;5094732;28;20261;-58
2022/12/05 12:56:00;;;;;;;2.73;1.83;;;;;;;;;;5090890;28;20277;-57
2022/12/05 12:58:37;;;;;;;9.43;5.87;;;;;;;;;;5088802;28;20332;-58
2022/12/05 13:01:04;;;;;;;2.70;2.00;;;;;;;;;;5088847;28;20286;-57
2022/12/05 13:03:35;;;;;;;3.23;1.60;;;;;;;;;;5088594;28;20343;-58
2022/12/05 13:06:08;;;;;;;2.53;2.33;;;;;;;;;;5092520;28;20269;-57
2022/12/05 13:08:38;;;;;;;3.37;2.70;;;;;;;;;;5094372;28;20810;-58
2022/12/05 13:11:07;;;;;;;5.43;3.87;;;;;;;;;;5094464;28;20773;-57
2022/12/05 13:13:36;;;;;;;3.67;2.13;;;;;;;;;;5094337;28;20269;-57
2022/12/05 13:16:06;;;;;;;13.83;4.27;;;;;;;;;;5094329;28;20265;-57
2022/12/05 13:18:33;;;;;;;3.67;2.43;;;;;;;;;;5088350;28;20280;-57
2022/12/05 13:21:06;;;;;;;3.23;1.97;;;;;;;;;;5086448;28;20273;-58
2022/12/05 13:23:35;;;;;;;14.83;2.57;;;;;;;;;;5087889;28;20342;-57
2022/12/05 13:26:07;;;;;;;1.83;1.37;;;;;;;;;;5087451;28;20671;-57
2022/12/05 13:28:40;;;;;;;4.17;1.87;;;;;;;;;;5093010;28;20263;-57
2022/12/05 13:31:08;;;;;;;6.10;1.53;;;;;;;;;;5093090;28;20273;-57
2022/12/05 13:33:46;;;;;;;3.83;1.47;;;;;;;;;;5093966;28;20260;-58
2022/12/05 13:44:49;;;;;;;5.60;2.70;;;;;;;;;;5088128;28;20333;-58
2022/12/05 13:47:22;;;;;;;4.83;1.50;;;;;;;;;;5088495;28;20253;-58
2022/12/05 13:50:08;;;;;;;22.20;2.57;;;;;;;;;;5090728;28;20269;-59
2022/12/05 13:52:45;;;;;;;20.80;2.47;;;;;;;;;;5093274;28;20275;-58
2022/12/05 13:55:14;;;;;;;3.27;1.70;;;;;;;;;;5091906;28;20265;-58
2022/12/05 13:57:43;;;;;;;1.23;0.97;;;;;;;;;;5093350;28;20272;-58
2022/12/05 14:00:09;;;;;;;1.67;1.03;;;;;;;;;;5092711;28;20319;-59
2022/12/05 14:02:42;;;;;;;3.30;0.83;;;;;;;;;;5087187;28;20055;-59
2022/12/05 14:05:21;;;;;;;1.80;1.27;;;;;;;;;;5087786;28;20268;-58
2022/12/05 14:07:48;;;;;;;3.70;1.43;;;;;;;;;;5087721;28;20479;-59
2022/12/05 14:10:16;;;;;;;0.53;0.50;;;;;;;;;;5086735;28;20031;-58
2022/12/05 14:12:46;;;;;;;4.57;1.13;;;;;;;;;;5092207;28;20060;-58
2022/12/05 14:15:31;;;;;;;1.73;1.00;;;;;;;;;;5092169;28;20020;-58
2022/12/05 14:18:16;;;;;;;0.85;0.80;;;;;;;;;;5092772;28;20032;-58
2022/12/05 14:20:58;;;;;;;0.52;0.50;;;;;;;;;;5092149;28;20028;-58
2022/12/05 14:23:40;;;;;;;1.40;0.83;;;;;;;;;;5087891;28;20028;-58
2022/12/05 14:26:09;;;;;;;4.13;0.73;;;;;;;;;;5086828;28;20036;-58
2022/12/05 14:28:54;;;;;;;2.43;1.00;;;;;;;;;;5086805;28;20027;-58
2022/12/05 14:31:27;;;;;;;0.82;0.65;;;;;;;;;;5087162;28;20508;-58
2022/12/05 14:34:13;;;;;;;12.57;1.10;;;;;;;;;;5089867;28;20448;-58
2022/12/05 14:36:51;;;;;;;1.43;1.03;;;;;;;;;;5092411;28;20476;-59
2022/12/05 14:39:22;;;;;;;2.00;1.17;;;;;;;;;;5085393;28;20074;-58
2022/12/05 14:41:55;;;;;;;2.67;1.30;;;;;;;;;;5091668;28;20024;-58
2022/12/05 14:44:23;;;;;;;3.90;1.33;;;;;;;;;;5091742;28;20177;-58
2022/12/05 14:46:50;;;;;;;1.93;1.10;;;;;;;;;;5079997;28;20063;-58
2022/12/05 14:49:34;;;;;;;2.20;1.27;;;;;;;;;;5086809;28;20416;-59
2022/12/05 14:52:08;;;;;;;5.95;1.27;;;;;;;;;;5086864;28;20066;-58
2022/12/05 14:54:35;;;;;;;6.37;1.80;;;;;;;;;;5086047;28;20432;-58
2022/12/05 14:57:15;;;;;;;10.20;2.30;;;;;;;;;;5090996;28;20048;-58
2022/12/05 14:59:44;;;;;;;2.50;1.73;;;;;;;;;;5080723;28;20035;-58
2022/12/05 15:02:17;;;;;;;1.67;1.23;;;;;;;;;;5092028;28;20055;-58
2022/12/05 15:04:47;;;;;;;2.53;1.63;;;;;;;;;;5091737;28;20020;-58
2022/12/05 15:07:17;;;;;;;3.73;1.77;;;;;;;;;;5089718;28;20051;-58
2022/12/05 15:09:49;;;;;;;7.50;2.33;;;;;;;;;;5086232;28;20031;-59
2022/12/05 15:12:18;;;;;;;2.83;1.70;;;;;;;;;;5077616;28;20032;-59
2022/12/05 15:15:06;;;;;;;4.47;2.37;;;;;;;;;;5083996;28;20032;-59
2022/12/05 15:17:44;;;;;;;10.23;2.83;;;;;;;;;;5079006;28;20445;-59
2022/12/05 15:20:16;;;;;;;4.83;2.03;;;;;;;;;;5084800;28;20380;-59